Time;durP1;ratioP1;P1;durP2;ratioP2;P2;SDS_P1;SDS_P2;PMS_P1;PMS_P2;Temp;Humidity;BMP_temperature;BMP_pressure;BME280_temperature;BME280_humidity;BME280_pressure;Samples;Min_cycle;Max_cycle;Signal;HPM_P1;HPM_P2
2022/01/21 19:55:37;;;;;;;11.75;4.07;;;;;;;-2.07;80.02;100925.09;5845261;23;20353;-91
2022/01/21 19:58:11;;;;;;;7.35;3.95;;;;;;;-2.08;80.21;100923.34;4922476;29;20055;-92
2022/01/21 20:01:05;;;;;;;10.50;4.18;;;;;;;-2.06;79.79;100931.91;4923800;29;20054;-92
2022/01/21 20:09:10;;;;;;;12.00;6.43;;;;;;;-2.07;79.86;100935.25;4890090;29;20044;-93
2022/01/21 20:11:57;;;;;;;10.02;5.13;;;;;;;-2.09;78.96;100941.91;4925030;29;20055;-93
2022/01/21 20:14:34;;;;;;;15.45;6.63;;;;;;;-2.11;79.07;100933.34;4925890;29;20052;-92
2022/01/21 20:17:03;;;;;;;13.90;5.78;;;;;;;-2.14;78.54;100928.13;4923274;29;20103;-91
2022/01/21 20:19:30;;;;;;;18.02;9.27;;;;;;;-2.16;78.59;100934.81;4917445;29;20054;-90
2022/01/21 20:21:58;;;;;;;16.73;8.77;;;;;;;-2.10;78.26;100947.78;4916562;29;20054;-90
2022/01/21 20:24:27;;;;;;;17.50;8.82;;;;;;;-2.09;78.26;100944.44;4917063;29;20044;-92
2022/01/21 20:26:56;;;;;;;16.17;7.63;;;;;;;-2.11;77.93;100940.97;4915590;29;20143;-90
2022/01/21 20:29:23;;;;;;;15.93;8.40;;;;;;;-2.14;77.23;100940.81;4915975;29;20115;-91
2022/01/21 20:31:52;;;;;;;17.70;8.15;;;;;;;-2.11;77.25;100951.13;4924694;29;20134;-91
2022/01/21 20:34:25;;;;;;;12.48;5.63;;;;;;;-2.10;76.86;100950.31;4919324;29;20055;-91
2022/01/21 20:37:02;;;;;;;14.27;6.72;;;;;;;-2.12;76.63;100957.00;4916642;29;20051;-90
2022/01/21 20:39:33;;;;;;;14.02;6.47;;;;;;;-2.12;75.95;100954.47;4916747;29;20621;-90
2022/01/21 20:42:05;;;;;;;13.05;5.50;;;;;;;-2.11;75.96;100958.75;4913307;29;20052;-91
2022/01/21 20:44:41;;;;;;;13.73;5.80;;;;;;;-2.14;75.63;100963.69;4925163;29;20102;-94
2022/01/21 20:47:18;;;;;;;11.73;4.60;;;;;;;-2.16;75.10;100957.66;4927028;29;21421;-94
2022/01/21 20:49:46;;;;;;;9.60;4.53;;;;;;;-2.16;75.13;100951.72;4920343;29;20036;-93
2022/01/21 20:52:13;;;;;;;10.32;4.15;;;;;;;-2.11;75.15;100962.97;4921326;29;20142;-94
2022/01/21 20:54:42;;;;;;;12.93;4.97;;;;;;;-2.16;74.53;100944.97;4920516;29;20386;-93
2022/01/21 20:57:11;;;;;;;9.25;4.70;;;;;;;-2.14;74.12;100947.59;4921561;29;20084;-92
2022/01/21 20:59:39;;;;;;;12.98;4.70;;;;;;;-2.11;73.83;100951.13;4922287;29;20501;-93
2022/01/21 21:02:08;;;;;;;8.88;4.20;;;;;;;-2.02;73.84;100964.28;4919919;29;20059;-93
2022/01/21 21:04:36;;;;;;;10.75;3.75;;;;;;;-2.11;73.19;100946.03;4918752;29;20048;-94
2022/01/21 21:07:05;;;;;;;8.93;3.90;;;;;;;-2.02;73.20;100953.25;4923543;29;20074;-92
2022/01/21 21:09:32;;;;;;;10.55;3.65;;;;;;;-2.11;72.55;100933.34;4922845;29;20068;-94
2022/01/21 21:12:02;;;;;;;7.97;2.70;;;;;;;-2.03;72.88;100941.34;4920775;29;21832;-92
2022/01/21 21:14:36;;;;;;;9.00;3.08;;;;;;;-2.03;73.01;100931.19;4919414;29;20036;-93
2022/01/21 21:25:37;;;;;;;8.95;2.92;;;;;;;-1.99;72.51;100936.47;4936993;29;20154;-94
2022/01/21 21:28:17;;;;;;;7.65;3.72;;;;;;;-1.91;72.24;100947.84;4935760;29;20063;-93
2022/01/21 21:31:12;;;;;;;10.73;3.70;;;;;;;-1.96;72.60;100934.06;4940495;29;20072;-94
2022/01/21 22:13:31;;;;;;;9.57;4.30;;;;;;;-1.68;72.12;100951.41;4949879;29;20064;-93
2022/01/21 23:00:38;;;;;;;16.17;2.88;;;;;;;-1.42;72.95;100990.69;4930897;29;20058;-93
2022/01/21 23:03:06;;;;;;;12.48;2.95;;;;;;;-1.32;72.88;100997.06;4925936;29;20058;-91
2022/01/21 23:05:34;;;;;;;7.63;1.77;;;;;;;-1.36;73.15;100974.84;4927066;29;20051;-93
2022/01/21 23:08:02;;;;;;;6.25;2.30;;;;;;;-1.33;73.38;100980.94;4929594;29;20060;-95
2022/01/21 23:10:31;;;;;;;6.75;1.58;;;;;;;-1.19;72.61;100998.44;4925650;29;20058;-93
2022/01/21 23:13:00;;;;;;;6.10;1.90;;;;;;;-1.18;72.29;100990.00;4927261;29;20130;-95
2022/01/21 23:15:33;;;;;;;6.80;1.85;;;;;;;-1.10;72.05;100988.66;4929401;29;20039;-93
2022/01/21 23:18:05;;;;;;;9.93;1.30;;;;;;;-1.13;73.02;100988.53;4925973;29;20492;-92
2022/01/21 23:20:33;;;;;;;5.63;1.77;;;;;;;-1.09;72.82;100980.22;4926993;29;20047;-96
2022/01/21 23:23:00;;;;;;;7.80;1.67;;;;;;;-1.06;73.89;100987.97;4924891;29;20131;-93
2022/01/21 23:25:32;;;;;;;6.50;1.55;;;;;;;-1.02;73.41;101000.06;4924292;29;20489;-94
2022/01/21 23:28:10;;;;;;;6.43;2.33;;;;;;;-0.98;72.59;101009.56;4923121;29;20078;-93
2022/01/21 23:30:38;;;;;;;10.20;2.75;;;;;;;-1.00;72.92;101008.63;4924488;29;20047;-92
2022/01/21 23:33:09;;;;;;;6.47;1.88;;;;;;;-1.01;73.01;101006.88;4923754;29;20047;-92
2022/01/21 23:35:37;;;;;;;6.47;1.55;;;;;;;-1.00;73.33;101006.09;4924902;29;20054;-95
2022/01/21 23:38:26;;;;;;;6.63;1.50;;;;;;;-1.06;73.01;100993.94;4932499;29;20047;-95
2022/01/21 23:40:55;;;;;;;6.90;1.40;;;;;;;-1.09;73.39;100985.31;4925865;29;20048;-94
2022/01/21 23:43:23;;;;;;;4.57;1.50;;;;;;;-1.02;73.97;101018.75;4926460;29;20043;-93
2022/01/21 23:45:51;;;;;;;5.82;1.52;;;;;;;-1.05;73.06;101002.44;4930469;29;20138;-92
2022/01/21 23:48:19;;;;;;;6.05;2.20;;;;;;;-1.07;73.15;101004.94;4928816;29;20054;-92
2022/01/21 23:50:51;;;;;;;4.28;1.27;;;;;;;-1.04;73.35;101017.81;4922323;29;20071;-93
2022/01/21 23:53:19;;;;;;;6.57;1.60;;;;;;;-1.06;72.93;101019.38;4921907;29;20050;-94
2022/01/21 23:55:46;;;;;;;6.38;2.00;;;;;;;-1.10;72.87;101020.06;4921203;29;20044;-93
2022/01/21 23:58:13;;;;;;;5.57;1.42;;;;;;;-1.06;72.68;101021.06;4922619;29;20060;-92
